Time;durP1;ratioP1;P1;durP2;ratioP2;P2;SDS_P1;SDS_P2;PMS_P1;PMS_P2;Temp;Humidity;BMP_temperature;BMP_pressure;BME280_temperature;BME280_humidity;BME280_pressure;Samples;Min_cycle;Max_cycle;Signal;HPM_P1;HPM_P2
2022/03/23 00:02:19;;;;;;;28.98;3.10;;;;;;;19.00;58.84;100889.56;7314646;19;129164;-39
2022/03/23 00:04:45;;;;;;;26.57;2.80;;;;;;;19.01;58.44;100886.00;7314908;19;157840;-39
2022/03/23 00:07:10;;;;;;;32.72;3.55;;;;;;;18.98;58.97;100886.19;7314581;19;130416;-42
2022/03/23 00:09:35;;;;;;;22.77;3.00;;;;;;;19.00;58.75;100892.16;7315647;19;129766;-37
2022/03/23 00:12:01;;;;;;;30.00;3.33;;;;;;;18.98;59.02;100883.59;7313956;19;154843;-40
2022/03/23 00:14:26;;;;;;;35.57;3.97;;;;;;;19.01;58.93;100875.59;7313942;19;157121;-38
2022/03/23 00:16:51;;;;;;;29.13;3.47;;;;;;;19.00;59.44;100884.34;7314071;19;129591;-38
2022/03/23 00:19:17;;;;;;;31.08;3.45;;;;;;;19.03;58.75;100884.16;7315538;19;154920;-37
2022/03/23 00:21:43;;;;;;;11.80;1.90;;;;;;;19.00;58.84;100873.91;7313513;19;129901;-37
2022/03/23 00:24:08;;;;;;;27.50;3.10;;;;;;;19.02;59.30;100877.25;7315689;19;129931;-37
2022/03/23 00:26:34;;;;;;;31.13;3.45;;;;;;;19.03;58.87;100873.72;7315030;19;129355;-40
2022/03/23 00:28:59;;;;;;;35.80;3.90;;;;;;;18.91;59.35;100845.78;7316118;19;129787;-34
2022/03/23 00:31:24;;;;;;;34.88;3.88;;;;;;;19.03;59.05;100871.13;7313866;19;129227;-40
2022/03/23 00:33:51;;;;;;;25.10;2.83;;;;;;;19.04;58.26;100875.41;7313210;19;158581;-32
2022/03/23 00:36:17;;;;;;;27.80;3.23;;;;;;;19.07;58.40;100871.78;7315685;19;129782;-39
2022/03/23 00:38:43;;;;;;;;;;;;;;;19.06;60.59;100878.75;7314878;19;128875;-40
2022/03/23 00:41:09;;;;;;;23.55;2.70;;;;;;;19.02;59.08;100866.81;7314907;19;128972;-39
2022/03/23 00:43:35;;;;;;;19.33;2.25;;;;;;;19.01;58.42;100854.72;7315600;19;129146;-39
2022/03/23 00:46:00;;;;;;;37.53;3.90;;;;;;;19.02;59.05;100861.63;7313686;19;130485;-36
2022/03/23 00:48:26;;;;;;;30.85;3.28;;;;;;;19.01;59.26;100859.09;7313940;19;130515;-39
2022/03/23 00:50:51;;;;;;;24.98;2.95;;;;;;;18.95;58.38;100849.91;7315431;19;129371;-42
2022/03/23 00:53:18;;;;;;;33.78;3.25;;;;;;;19.05;58.58;100861.44;7312751;19;158292;-40
2022/03/23 00:55:43;;;;;;;22.88;2.50;;;;;;;19.02;59.42;100866.81;7315860;19;130644;-39
2022/03/23 00:58:09;;;;;;;21.67;2.70;;;;;;;19.02;59.18;100859.00;7313134;19;129208;-41
2022/03/23 01:00:35;;;;;;;24.60;2.90;;;;;;;19.06;58.19;100857.06;7313771;19;129947;-40
2022/03/23 01:03:00;;;;;;;33.45;4.00;;;;;;;19.06;58.28;100863.13;7313552;19;137350;-40
2022/03/23 01:05:26;;;;;;;36.50;3.70;;;;;;;19.03;59.88;100857.25;7314134;19;158780;-41
2022/03/23 01:07:52;;;;;;;31.27;3.47;;;;;;;19.04;59.67;100859.75;7312406;19;129274;-39
2022/03/23 01:10:17;;;;;;;20.30;2.30;;;;;;;19.07;59.06;100856.16;7313254;19;129278;-42
2022/03/23 01:12:45;;;;;;;28.75;3.45;;;;;;;19.02;59.83;100855.59;7314533;19;130286;-38
2022/03/23 01:15:13;;;;;;;26.55;2.97;;;;;;;19.05;58.32;100851.03;7313603;19;129484;-34
2022/03/23 01:17:39;;;;;;;23.60;2.67;;;;;;;19.00;58.78;100847.00;7311405;19;129085;-41
2022/03/23 01:20:10;;;;;;;57.92;5.95;;;;;;;19.05;60.01;100848.41;7312680;19;129748;-39
2022/03/23 01:22:36;;;;;;;34.08;3.90;;;;;;;19.04;58.50;100856.34;7314771;19;130875;-41
2022/03/23 01:25:07;;;;;;;26.80;3.03;;;;;;;18.93;59.83;100836.13;7312852;19;129431;-40
2022/03/23 01:27:33;;;;;;;27.75;3.13;;;;;;;18.98;58.77;100854.94;7313036;19;130330;-40
2022/03/23 01:29:58;;;;;;;58.35;5.43;;;;;;;19.02;58.68;100855.59;7314414;19;129226;-39
2022/03/23 01:32:23;;;;;;;28.38;3.10;;;;;;;18.93;58.98;100835.28;7312474;19;158413;-42
2022/03/23 01:34:49;;;;;;;25.38;2.90;;;;;;;19.06;58.94;100852.69;7312492;19;156224;-41
2022/03/23 01:37:15;;;;;;;25.17;3.20;;;;;;;18.94;59.11;100836.97;7311400;19;130443;-41
2022/03/23 01:39:40;;;;;;;21.98;2.70;;;;;;;19.03;58.82;100857.25;7313721;19;129043;-38
2022/03/23 01:42:06;;;;;;;19.58;2.38;;;;;;;19.04;59.89;100853.72;7310266;19;129220;-39
2022/03/23 01:44:31;;;;;;;38.60;4.15;;;;;;;18.94;58.94;100835.19;7313246;19;129709;-38
2022/03/23 01:47:07;;;;;;;21.90;2.63;;;;;;;19.03;60.27;100847.66;7312350;19;129404;-36
2022/03/23 01:49:52;;;;;;;70.50;6.85;;;;;;;19.04;59.52;100843.31;7311079;19;129034;-42
2022/03/23 01:52:20;;;;;;;18.40;2.42;;;;;;;19.05;58.64;100850.19;7313252;19;130606;-40
2022/03/23 01:54:46;;;;;;;18.85;2.33;;;;;;;19.04;59.07;100846.72;7314117;19;130961;-36
2022/03/23 01:57:14;;;;;;;27.30;2.75;;;;;;;19.03;59.53;100845.06;7310498;19;129169;-40
2022/03/23 01:59:39;;;;;;;23.20;3.00;;;;;;;19.03;59.37;100834.63;7313225;19;128974;-41
2022/03/23 02:02:05;;;;;;;25.40;3.00;;;;;;;19.04;58.78;100838.91;7310551;19;130143;-37
2022/03/23 02:04:30;;;;;;;36.20;4.03;;;;;;;19.03;58.62;100841.59;7311512;19;131778;-41
2022/03/23 02:06:56;;;;;;;22.83;2.72;;;;;;;19.05;59.05;100842.38;7312243;19;129745;-37
2022/03/23 02:09:24;;;;;;;28.70;3.47;;;;;;;19.07;58.93;100843.13;7310363;19;154293;-42
2022/03/23 02:11:50;;;;;;;27.58;3.55;;;;;;;19.05;58.76;100840.59;7311702;19;129209;-35
2022/03/23 02:14:15;;;;;;;21.10;2.63;;;;;;;19.03;58.81;100837.25;7310378;19;159104;-36
2022/03/23 02:16:46;;;;;;;25.25;3.15;;;;;;;19.04;59.66;100844.13;7309675;19;129128;-40
2022/03/23 02:19:12;;;;;;;17.70;2.33;;;;;;;19.04;58.87;100836.31;7312684;19;129424;-41
2022/03/23 02:21:42;;;;;;;29.30;3.45;;;;;;;19.03;59.38;100834.63;7310831;19;130986;-41
2022/03/23 02:24:07;;;;;;;16.35;1.98;;;;;;;19.04;58.26;100831.09;7312653;19;129411;-39
2022/03/23 02:26:32;;;;;;;32.40;3.63;;;;;;;19.06;58.19;100833.59;7310688;19;154936;-41
2022/03/23 02:29:00;;;;;;;22.95;2.97;;;;;;;19.05;59.02;100832.78;7311593;19;154196;-42
2022/03/23 02:31:25;;;;;;;35.90;3.90;;;;;;;19.05;59.04;100831.94;7310431;19;130290;-39
2022/03/23 02:33:51;;;;;;;25.70;2.90;;;;;;;19.04;58.73;100825.88;7312924;19;129825;-40
2022/03/23 02:36:16;;;;;;;22.38;3.05;;;;;;;19.05;58.95;100832.78;7311084;19;129179;-39
2022/03/23 02:38:42;;;;;;;18.73;2.13;;;;;;;19.05;58.73;100830.19;7310325;19;154909;-34
2022/03/23 02:41:08;;;;;;;21.75;2.65;;;;;;;18.96;59.06;100815.09;7309914;19;130523;-39
2022/03/23 02:43:34;;;;;;;28.15;3.22;;;;;;;18.98;58.04;100817.59;7312345;19;130868;-39
2022/03/23 02:45:59;;;;;;;36.75;4.03;;;;;;;19.05;58.66;100837.16;7310824;19;129170;-40
2022/03/23 02:48:24;;;;;;;24.13;3.15;;;;;;;19.06;58.28;100829.22;7308379;19;154027;-40
2022/03/23 02:50:50;;;;;;;24.37;2.67;;;;;;;19.09;58.63;100836.00;7310247;19;158528;-42
2022/03/23 03:02:14;;;;;;;20.38;2.83;;;;;;;19.06;60.00;100825.78;7309506;19;129083;-37
2022/03/23 03:04:40;;;;;;;30.08;3.30;;;;;;;19.06;58.36;100826.63;7309319;19;158098;-36
2022/03/23 03:07:05;;;;;;;31.70;3.65;;;;;;;19.07;58.24;100824.88;7309161;19;149585;-38
2022/03/23 03:09:31;;;;;;;38.03;3.97;;;;;;;19.03;59.49;100829.44;7311061;19;147328;-40
2022/03/23 03:11:56;;;;;;;31.13;3.60;;;;;;;19.05;58.89;100831.94;7311916;19;130605;-41
2022/03/23 03:14:21;;;;;;;24.37;3.07;;;;;;;19.07;58.94;100827.47;7311329;19;155291;-37
2022/03/23 03:16:46;;;;;;;19.08;2.50;;;;;;;19.05;58.96;100832.78;7311015;19;129707;-42
2022/03/23 03:19:12;;;;;;;22.40;2.60;;;;;;;19.04;59.31;100833.69;7309394;19;154284;-39
2022/03/23 03:21:38;;;;;;;26.65;3.33;;;;;;;19.04;59.52;100838.91;7309817;19;130441;-38
2022/03/23 03:24:04;;;;;;;29.57;3.53;;;;;;;19.06;58.69;100837.06;7310006;19;130760;-42
2022/03/23 03:26:30;;;;;;;27.13;3.10;;;;;;;19.04;58.96;100831.09;7310668;19;129298;-41
2022/03/23 03:28:56;;;;;;;16.50;2.47;;;;;;;18.99;58.49;100821.91;7310320;19;129358;-41
2022/03/23 03:31:22;;;;;;;22.85;2.72;;;;;;;19.08;59.04;100836.97;7310734;19;130484;-41
2022/03/23 03:33:47;;;;;;;30.55;3.67;;;;;;;19.07;58.95;100841.31;7322321;19;130331;-39
2022/03/23 03:36:12;;;;;;;18.33;2.33;;;;;;;19.06;58.99;100842.25;7324919;19;129854;-37
2022/03/23 03:38:38;;;;;;;21.65;2.65;;;;;;;19.04;59.64;100836.31;7321354;19;129846;-36
2022/03/23 03:41:04;;;;;;;16.83;2.83;;;;;;;19.05;58.90;100845.81;7323875;19;129255;-41
2022/03/23 03:43:31;;;;;;;25.05;2.92;;;;;;;19.06;59.39;100838.81;7325324;19;129149;-33
2022/03/23 03:45:56;;;;;;;;;;;;;;;19.08;60.47;100837.81;7324743;19;129816;-41
2022/03/23 03:48:22;;;;;;;32.80;3.97;;;;;;;18.95;59.86;100813.41;7321590;19;129138;-43
2022/03/23 03:50:47;;;;;;;26.75;3.25;;;;;;;19.03;59.41;100832.03;7322401;19;159016;-40
2022/03/23 03:53:13;;;;;;;15.68;2.15;;;;;;;19.01;58.54;100833.88;7325206;19;129252;-39
2022/03/23 03:55:39;;;;;;;18.80;2.30;;;;;;;19.03;58.35;100825.97;7323588;19;128835;-41
2022/03/23 03:58:05;;;;;;;22.02;2.80;;;;;;;19.04;59.01;100830.28;7321629;19;129263;-38
2022/03/23 04:00:34;;;;;;;17.45;2.25;;;;;;;18.96;58.96;100814.25;7323448;19;129557;-40
2022/03/23 04:03:00;;;;;;;38.92;4.60;;;;;;;19.06;59.07;100831.84;7322748;19;130453;-40
2022/03/23 04:05:25;;;;;;;40.70;4.70;;;;;;;19.05;59.04;100829.34;7323083;19;129397;-42
2022/03/23 04:07:51;;;;;;;43.17;4.63;;;;;;;19.06;58.40;100831.84;7320890;19;129560;-38
2022/03/23 04:10:16;;;;;;;20.85;3.05;;;;;;;19.05;58.81;100830.19;7322348;19;152309;-39
2022/03/23 04:12:41;;;;;;;10.90;2.05;;;;;;;19.05;58.73;100830.19;7325173;19;130506;-38
2022/03/23 04:15:07;;;;;;;29.02;3.20;;;;;;;19.05;59.50;100834.53;7323402;19;129181;-40
2022/03/23 04:17:32;;;;;;;27.30;3.35;;;;;;;19.03;58.66;100832.03;7322147;19;130070;-41
2022/03/23 04:20:00;;;;;;;30.42;3.72;;;;;;;19.04;58.58;100833.69;7321001;19;130693;-37
2022/03/23 04:22:25;;;;;;;19.40;2.90;;;;;;;19.01;59.67;100833.88;7318911;19;158667;-40
2022/03/23 04:24:51;;;;;;;24.47;3.07;;;;;;;19.05;58.13;100827.56;7321358;19;155494;-38
2022/03/23 04:27:16;;;;;;;22.35;2.90;;;;;;;19.05;58.33;100832.78;7321429;19;129066;-36
2022/03/23 04:29:41;;;;;;;37.75;4.15;;;;;;;19.04;58.27;100844.13;7323341;19;129574;-37
2022/03/23 04:32:10;;;;;;;25.33;3.17;;;;;;;19.03;58.91;100844.22;7320798;19;158346;-37
2022/03/23 04:34:35;;;;;;;23.48;3.08;;;;;;;19.04;58.59;100843.31;7323294;19;129205;-42
2022/03/23 04:37:01;;;;;;;31.95;3.65;;;;;;;19.04;59.36;100846.72;7319706;19;154375;-34
2022/03/23 04:39:26;;;;;;;28.48;3.58;;;;;;;19.05;59.24;100839.75;7323119;19;131027;-37
2022/03/23 04:41:52;;;;;;;22.85;2.92;;;;;;;19.04;59.81;100832.88;7320750;19;130681;-37
2022/03/23 04:44:17;;;;;;;18.63;2.30;;;;;;;19.01;59.16;100844.31;7317494;19;129533;-41
2022/03/23 04:46:42;;;;;;;33.70;4.28;;;;;;;19.03;59.20;100846.81;7312776;19;154754;-40
2022/03/23 04:49:08;;;;;;;42.42;4.75;;;;;;;19.02;59.39;100843.38;7314055;19;129174;-36
2022/03/23 04:51:34;;;;;;;33.20;3.63;;;;;;;19.05;58.62;100834.53;7312677;19;130390;-40
2022/03/23 04:54:00;;;;;;;44.53;4.47;;;;;;;19.03;58.64;100842.47;7312798;19;130246;-37
2022/03/23 04:56:25;;;;;;;18.03;2.87;;;;;;;19.04;59.06;100849.34;7312579;19;129979;-41
2022/03/23 04:58:51;;;;;;;8.38;2.00;;;;;;;19.06;59.58;100844.88;7310044;19;129507;-41
2022/03/23 05:01:16;;;;;;;25.07;3.50;;;;;;;19.03;59.18;100842.47;7309437;19;157923;-41
2022/03/23 05:03:41;;;;;;;16.33;2.07;;;;;;;19.03;58.55;100839.84;7312947;19;155444;-37
2022/03/23 05:06:07;;;;;;;22.63;2.80;;;;;;;19.04;59.34;100846.72;7311363;19;138714;-37
2022/03/23 05:08:32;;;;;;;28.52;3.38;;;;;;;19.08;58.67;100850.00;7311895;19;130836;-41
2022/03/23 05:10:57;;;;;;;29.97;3.60;;;;;;;19.05;58.67;100843.22;7310252;19;158525;-41
2022/03/23 05:13:23;;;;;;;33.22;4.00;;;;;;;19.07;58.87;100850.94;7316157;19;129122;-40
2022/03/23 05:15:49;;;;;;;26.00;3.10;;;;;;;19.08;57.92;100850.00;7312648;19;129414;-41
2022/03/23 05:18:14;;;;;;;32.80;3.70;;;;;;;19.04;59.70;100844.13;7312485;19;129761;-35
2022/03/23 05:20:39;;;;;;;13.35;2.30;;;;;;;19.05;58.70;100845.81;7312060;19;134174;-36
2022/03/23 05:23:05;;;;;;;21.48;3.00;;;;;;;19.06;58.98;100844.88;7309762;19;154932;-39
2022/03/23 05:25:30;;;;;;;60.53;6.38;;;;;;;19.06;59.59;100849.22;7313755;19;129427;-39
2022/03/23 05:27:56;;;;;;;15.95;2.53;;;;;;;19.05;58.99;100850.19;7311323;19;130208;-41
2022/03/23 05:30:21;;;;;;;45.63;5.03;;;;;;;19.04;58.53;100844.13;7312097;19;140477;-40
2022/03/23 05:32:46;;;;;;;17.23;2.23;;;;;;;19.08;58.24;100847.38;7311146;19;154673;-41
2022/03/23 05:35:12;;;;;;;21.77;2.78;;;;;;;19.08;59.01;100856.03;7313835;19;130084;-39
2022/03/23 05:37:37;;;;;;;39.95;3.97;;;;;;;19.04;59.10;100857.16;7310190;19;130202;-40
2022/03/23 05:40:04;;;;;;;23.92;2.83;;;;;;;19.06;58.67;100851.84;7314272;19;130380;-38
2022/03/23 05:42:29;;;;;;;66.15;6.80;;;;;;;19.02;59.26;100851.19;7309909;19;130191;-40
2022/03/23 05:44:55;;;;;;;24.27;3.00;;;;;;;18.97;58.99;100840.19;7312350;19;129024;-42
2022/03/23 05:47:21;;;;;;;25.83;3.03;;;;;;;19.03;58.37;100852.88;7311389;19;158687;-39
2022/03/23 05:49:46;;;;;;;15.07;2.33;;;;;;;19.02;59.26;100856.41;7311570;19;130983;-40
2022/03/23 05:52:11;;;;;;;37.90;3.92;;;;;;;19.05;58.51;100847.56;7310785;19;130176;-38
2022/03/23 05:54:36;;;;;;;32.90;3.42;;;;;;;19.08;58.66;100856.03;7311243;19;129938;-33
2022/03/23 05:57:02;;;;;;;34.17;3.95;;;;;;;19.05;58.53;100848.41;7307322;19;159087;-40
2022/03/23 05:59:29;;;;;;;54.10;5.67;;;;;;;19.04;58.49;100846.72;7310963;19;130434;-39
2022/03/23 06:01:54;;;;;;;39.72;4.28;;;;;;;19.08;58.02;100850.84;7307741;19;131347;-41
2022/03/23 06:04:19;;;;;;;32.67;3.67;;;;;;;19.06;58.27;100849.22;7312983;19;130647;-37
2022/03/23 06:06:45;;;;;;;15.35;2.47;;;;;;;19.05;58.60;100844.97;7308727;19;158743;-41
2022/03/23 06:09:12;;;;;;;20.60;2.60;;;;;;;19.07;58.92;100853.53;7311451;19;158380;-35
2022/03/23 06:11:37;;;;;;;31.50;3.42;;;;;;;19.04;59.25;100851.94;7312060;19;130232;-40
2022/03/23 06:14:03;;;;;;;41.38;4.43;;;;;;;19.00;58.66;100837.44;7308570;19;130033;-37
2022/03/23 06:16:28;;;;;;;33.67;4.20;;;;;;;19.04;59.32;100854.53;7309886;19;158912;-39
2022/03/23 06:18:53;;;;;;;17.03;2.93;;;;;;;19.05;59.65;100851.03;7305530;19;158536;-42
2022/03/23 06:21:18;;;;;;;40.60;4.57;;;;;;;19.06;58.87;100857.91;7308536;19;154361;-43
2022/03/23 06:23:44;;;;;;;18.80;2.53;;;;;;;19.03;59.07;100860.69;7310580;19;154275;-41
2022/03/23 06:26:09;;;;;;;23.37;2.93;;;;;;;19.03;58.63;100857.25;7309207;19;159666;-40
2022/03/23 06:28:34;;;;;;;30.03;3.50;;;;;;;19.06;58.67;100863.13;7309524;19;159487;-40
2022/03/23 06:31:00;;;;;;;24.55;3.47;;;;;;;19.01;59.93;100857.34;7311220;19;128979;-41
2022/03/23 06:33:25;;;;;;;35.58;4.18;;;;;;;19.04;58.42;100858.94;7311259;19;129078;-40
2022/03/23 06:35:51;;;;;;;23.17;2.95;;;;;;;18.94;59.46;100845.59;7311868;19;129541;-42
2022/03/23 06:38:17;;;;;;;23.20;3.05;;;;;;;19.03;58.38;100863.31;7310091;19;131205;-37
2022/03/23 06:40:42;;;;;;;18.75;2.78;;;;;;;19.03;59.31;100860.69;7312803;19;129050;-37
2022/03/23 06:43:07;;;;;;;18.35;2.38;;;;;;;19.02;59.28;100861.63;7310100;19;130277;-36
2022/03/23 06:45:32;;;;;;;38.65;4.63;;;;;;;18.96;58.44;100851.56;7312089;19;130198;-41
2022/03/23 06:47:58;;;;;;;29.73;3.75;;;;;;;19.00;59.16;100855.69;7311217;19;132917;-40
2022/03/23 06:50:24;;;;;;;29.88;3.97;;;;;;;19.05;58.08;100856.25;7311601;19;129443;-35
2022/03/23 06:52:49;;;;;;;23.27;3.10;;;;;;;19.06;58.40;100857.91;7304663;19;131082;-39
2022/03/23 06:55:15;;;;;;;70.25;7.63;;;;;;;19.03;59.11;100865.91;7294049;19;140075;-38
2022/03/23 06:57:40;;;;;;;56.75;6.65;;;;;;;19.05;58.55;100858.00;7301050;19;130822;-39
2022/03/23 07:00:12;;;;;;;54.30;5.97;;;;;;;19.03;58.91;100858.09;7299521;19;154585;-38
2022/03/23 07:02:40;;;;;;;41.20;4.75;;;;;;;19.05;59.54;100864.06;7301629;19;129280;-38
2022/03/23 07:05:05;;;;;;;81.68;8.18;;;;;;;19.04;59.53;100864.97;7298792;19;130107;-39
2022/03/23 07:07:31;;;;;;;34.90;4.20;;;;;;;19.06;58.42;100865.72;7284092;19;131018;-39
2022/03/23 07:09:56;;;;;;;47.00;5.20;;;;;;;19.08;58.56;100863.88;7304046;19;154601;-37
2022/03/23 07:12:21;;;;;;;45.58;5.15;;;;;;;19.06;58.98;100862.28;7302079;19;154221;-37
2022/03/23 07:14:48;;;;;;;36.20;4.03;;;;;;;18.97;58.75;100848.03;7306785;19;129298;-41
2022/03/23 07:17:13;;;;;;;48.05;5.45;;;;;;;19.05;59.69;100861.44;7301060;19;131076;-41
2022/03/23 07:19:38;;;;;;;39.47;4.55;;;;;;;19.05;58.69;100861.44;7303703;19;156072;-34
2022/03/23 07:22:04;;;;;;;45.30;5.40;;;;;;;19.05;59.44;100861.44;7300866;19;154067;-38
2022/03/23 07:24:29;;;;;;;48.88;5.50;;;;;;;19.05;59.65;100858.84;7303409;19;130230;-39
2022/03/23 07:26:55;;;;;;;23.77;3.15;;;;;;;19.03;59.37;100852.03;7299007;19;158392;-39
2022/03/23 07:29:20;;;;;;;51.03;5.85;;;;;;;19.04;59.60;100858.94;7305708;19;130023;-39
2022/03/23 07:31:46;;;;;;;76.35;8.32;;;;;;;19.02;59.56;100859.00;7301811;19;130544;-35
2022/03/23 07:34:14;;;;;;;30.90;3.37;;;;;;;19.04;58.96;100856.34;7300193;19;130198;-38
2022/03/23 07:36:40;;;;;;;48.38;5.70;;;;;;;19.03;59.77;100863.31;7290737;19;130843;-40
2022/03/23 07:39:05;;;;;;;20.08;2.75;;;;;;;18.92;59.92;100852.69;7304047;19;129068;-39
2022/03/23 07:41:31;;;;;;;20.33;2.90;;;;;;;19.04;58.60;100857.16;7303204;19;153967;-41
2022/03/23 07:43:56;;;;;;;21.55;2.70;;;;;;;19.04;59.03;100864.16;7304986;19;158768;-39
2022/03/23 07:46:21;;;;;;;41.88;4.72;;;;;;;19.04;58.51;100864.97;7305647;19;130810;-39
2022/03/23 07:48:47;;;;;;;28.40;3.55;;;;;;;19.08;58.83;100866.47;7304914;19;141952;-41
2022/03/23 07:51:12;;;;;;;63.70;6.93;;;;;;;19.08;58.73;100870.84;7304177;19;156163;-36
2022/03/23 07:53:37;;;;;;;29.67;4.07;;;;;;;19.07;59.40;100869.19;7304098;19;159478;-41
2022/03/23 07:56:02;;;;;;;47.67;5.43;;;;;;;19.05;59.31;100869.28;7303215;19;158482;-41
2022/03/23 07:58:29;;;;;;;34.22;4.10;;;;;;;19.08;58.72;100863.88;7306541;19;144463;-39
2022/03/23 08:00:55;;;;;;;24.70;2.97;;;;;;;19.03;59.13;100863.31;7311082;19;128906;-36
2022/03/23 08:03:20;;;;;;;42.65;4.50;;;;;;;19.06;59.34;100868.31;7296962;19;129179;-38
2022/03/23 08:05:46;;;;;;;52.42;5.95;;;;;;;19.05;58.99;100864.06;7306548;19;129712;-43
2022/03/23 08:08:12;;;;;;;36.00;4.47;;;;;;;19.02;59.54;100861.63;7301139;19;129867;-40
2022/03/23 08:10:41;;;;;;;20.75;2.78;;;;;;;19.05;59.07;100864.06;7306719;19;131307;-39
2022/03/23 08:13:09;;;;;;;56.25;6.05;;;;;;;19.06;59.46;100863.13;7305720;19;130696;-32
2022/03/23 08:15:35;;;;;;;126.07;12.60;;;;;;;19.05;58.96;100856.25;7300427;19;130400;-39
2022/03/23 08:18:00;;;;;;;38.17;4.53;;;;;;;19.03;59.18;100857.25;7301503;19;130356;-34
2022/03/23 08:20:37;;;;;;;110.10;10.73;;;;;;;19.00;58.67;100855.69;7291572;19;154183;-40
2022/03/23 08:23:07;;;;;;;98.50;10.35;;;;;;;19.13;58.76;100858.38;7294525;19;129277;-39
2022/03/23 08:25:33;;;;;;;77.55;8.13;;;;;;;19.13;58.56;100861.81;7297916;19;130788;-36
2022/03/23 08:28:00;;;;;;;106.97;11.18;;;;;;;19.19;58.63;100871.88;7291683;19;130114;-36
2022/03/23 08:30:26;;;;;;;54.65;6.10;;;;;;;19.16;57.42;100853.81;7294829;19;130747;-41
2022/03/23 08:32:51;;;;;;;107.67;12.07;;;;;;;19.17;55.37;100868.50;7303772;19;130315;-38
2022/03/23 08:35:17;;;;;;;37.83;7.22;;;;;;;19.20;53.20;100870.94;7310171;19;130275;-36
2022/03/23 08:37:42;;;;;;;42.67;8.38;;;;;;;19.19;48.46;100871.88;7308031;19;131510;-39
2022/03/23 08:40:08;;;;;;;31.55;7.82;;;;;;;19.16;49.34;100873.81;7313280;19;130885;-42
2022/03/23 08:42:33;;;;;;;33.90;8.43;;;;;;;19.10;45.68;100853.34;7313332;19;130699;-41
2022/03/23 08:44:58;;;;;;;69.17;11.53;;;;;;;19.17;45.69;100875.50;7309004;19;159338;-41
2022/03/23 08:47:23;;;;;;;35.00;8.20;;;;;;;19.19;42.98;100871.88;7310688;19;154696;-36
2022/03/23 08:49:49;;;;;;;28.52;8.15;;;;;;;19.18;43.98;100864.13;7313591;19;129281;-39
2022/03/23 08:52:15;;;;;;;23.95;7.20;;;;;;;19.20;43.67;100864.91;7314007;19;130672;-41
2022/03/23 08:54:40;;;;;;;33.08;8.00;;;;;;;19.23;43.36;100865.53;7314950;19;130992;-38
2022/03/23 08:57:05;;;;;;;58.72;10.02;;;;;;;19.23;42.78;100865.53;7310336;19;129411;-39
2022/03/23 08:59:31;;;;;;;40.53;8.45;;;;;;;19.20;42.18;100868.34;7312270;19;154388;-35
2022/03/23 09:01:56;;;;;;;33.17;7.72;;;;;;;19.31;41.78;100862.50;7312206;19;131303;-42
2022/03/23 09:04:22;;;;;;;51.30;9.65;;;;;;;19.27;41.77;100864.41;7311519;19;129951;-38
2022/03/23 09:06:48;;;;;;;30.93;7.43;;;;;;;19.26;41.01;100862.75;7312370;19;130346;-38
2022/03/23 09:09:13;;;;;;;47.23;8.50;;;;;;;19.30;41.50;100860.81;7314364;19;154827;-35
2022/03/23 09:11:38;;;;;;;25.80;7.07;;;;;;;19.26;40.48;100860.13;7313410;19;158225;-42
2022/03/23 09:14:04;;;;;;;25.63;7.53;;;;;;;19.15;41.85;100852.16;7316442;19;129876;-37
2022/03/23 09:16:29;;;;;;;32.60;8.10;;;;;;;19.29;40.90;100859.97;7312560;19;129264;-38
2022/03/23 09:18:55;;;;;;;37.07;9.30;;;;;;;19.27;39.82;100861.81;7307712;19;152623;-40
2022/03/23 09:21:21;;;;;;;47.35;9.38;;;;;;;19.15;40.67;100846.09;7310623;19;130181;-38
2022/03/23 09:23:48;;;;;;;18.23;6.45;;;;;;;19.23;40.39;100860.34;7309289;19;129245;-41
2022/03/23 09:26:14;;;;;;;;;;;;;;;19.23;43.69;100855.13;7311758;19;130462;-41
2022/03/23 09:28:39;;;;;;;20.75;6.93;;;;;;;19.24;39.02;100862.00;7308026;19;130822;-38
2022/03/23 09:31:04;;;;;;;28.42;7.80;;;;;;;19.13;44.01;100854.00;7304992;19;131073;-42
2022/03/23 09:33:30;;;;;;;51.63;9.60;;;;;;;19.01;45.46;100833.88;7308724;19;158857;-36
2022/03/23 09:35:55;;;;;;;41.58;8.30;;;;;;;19.10;46.22;100848.13;7312184;19;130059;-38
2022/03/23 09:38:20;;;;;;;55.47;9.55;;;;;;;19.12;45.74;100852.31;7307696;19;129323;-35
2022/03/23 09:40:50;;;;;;;25.40;6.43;;;;;;;19.02;47.76;100826.91;7309988;19;158796;-41
2022/03/23 09:43:19;;;;;;;31.55;7.18;;;;;;;19.14;47.43;100844.38;7309740;19;131031;-39
2022/03/23 09:45:46;;;;;;;27.40;6.57;;;;;;;19.11;47.04;100845.44;7300053;19;129340;-41
2022/03/23 09:48:14;;;;;;;18.15;5.78;;;;;;;19.13;48.74;100843.56;7310254;19;129873;-36
2022/03/23 09:50:41;;;;;;;48.97;8.07;;;;;;;19.13;50.17;100848.78;7303029;19;130391;-37
2022/03/23 09:53:07;;;;;;;29.05;6.50;;;;;;;19.05;49.69;100829.34;7307710;19;129861;-41
2022/03/23 09:55:32;;;;;;;93.50;12.15;;;;;;;19.14;49.89;100840.03;7299405;19;129400;-38
2022/03/23 09:58:00;;;;;;;27.75;5.70;;;;;;;19.16;49.83;100843.38;7296141;19;130505;-38
2022/03/23 10:00:29;;;;;;;29.40;5.95;;;;;;;19.15;50.63;100841.72;7310615;19;130404;-38
2022/03/23 10:02:57;;;;;;;37.20;6.85;;;;;;;19.13;50.86;100838.38;7307254;19;130883;-38
2022/03/23 10:05:37;;;;;;;51.40;8.07;;;;;;;19.12;50.50;100830.63;7306182;19;154520;-38
2022/03/23 10:08:23;;;;;;;26.60;5.47;;;;;;;19.11;51.62;100829.78;7310147;19;129496;-38
2022/03/23 10:11:26;;;;;;;33.33;6.07;;;;;;;19.11;51.23;100829.78;7309188;19;129153;-35
2022/03/23 10:14:14;;;;;;;30.95;6.15;;;;;;;19.05;51.54;100824.97;7310047;19;129302;-35
2022/03/23 10:17:08;;;;;;;15.75;4.47;;;;;;;19.07;51.90;100824.88;7308629;19;155246;-40
2022/03/23 10:19:33;;;;;;;25.92;5.22;;;;;;;18.94;52.35;100811.72;7310111;19;130269;-37
2022/03/23 10:22:10;;;;;;;38.50;6.17;;;;;;;19.03;52.06;100824.22;7308232;19;157905;-37
2022/03/23 10:24:36;;;;;;;25.17;4.47;;;;;;;19.01;51.49;100828.69;7311072;19;129247;-35
2022/03/23 10:27:10;;;;;;;58.75;7.72;;;;;;;18.98;52.38;100818.44;7310582;19;130561;-32
2022/03/23 10:29:44;;;;;;;36.60;6.05;;;;;;;18.98;52.92;100821.03;7308466;19;129301;-37
2022/03/23 10:32:10;;;;;;;33.35;5.53;;;;;;;18.99;53.52;100814.91;7310471;19;130305;-39
2022/03/23 10:34:43;;;;;;;49.53;7.33;;;;;;;19.01;52.42;100818.25;7309588;19;130793;-38
2022/03/23 10:37:11;;;;;;;35.30;5.90;;;;;;;18.98;52.03;100813.22;7306497;19;129112;-37
2022/03/23 10:39:36;;;;;;;30.02;5.60;;;;;;;18.98;52.48;100815.84;7310974;19;129252;-37
2022/03/23 10:42:19;;;;;;;40.47;5.85;;;;;;;18.98;53.98;100818.44;7306731;19;131952;-44
2022/03/23 10:44:47;;;;;;;43.30;6.32;;;;;;;18.99;52.66;100804.47;7310801;19;130733;-38
2022/03/23 10:47:27;;;;;;;33.38;5.50;;;;;;;19.02;53.93;100796.47;7303459;19;129409;-35
2022/03/23 10:49:53;;;;;;;28.90;4.88;;;;;;;19.01;51.98;100802.63;7309951;19;130274;-36
2022/03/23 10:52:18;;;;;;;51.25;7.72;;;;;;;19.03;52.64;100808.56;7307655;19;130075;-42
2022/03/23 10:54:56;;;;;;;27.02;4.60;;;;;;;19.05;53.61;100798.06;7308695;19;131440;-34
2022/03/23 10:57:54;;;;;;;49.13;6.63;;;;;;;18.96;53.30;100783.81;7305655;19;129816;-40
2022/03/23 11:00:33;;;;;;;48.35;6.78;;;;;;;19.06;53.85;100794.50;7309170;19;130639;-37
2022/03/23 11:03:00;;;;;;;51.50;7.70;;;;;;;19.02;53.16;100798.25;7302256;19;130923;-37
2022/03/23 11:05:29;;;;;;;;;;;;;;;19.04;54.03;100799.00;7309892;19;130764;-41
2022/03/23 11:08:23;;;;;;;30.00;5.05;;;;;;;19.00;54.04;100790.53;7306304;19;129719;-38
2022/03/23 11:16:27;;;;;;;32.53;5.60;;;;;;;19.04;53.80;100781.56;7309234;19;129661;-37
2022/03/23 11:18:57;;;;;;;32.22;5.43;;;;;;;18.99;53.37;100781.00;7305678;19;131211;-38
2022/03/23 11:21:22;;;;;;;38.95;6.05;;;;;;;18.98;53.80;100775.91;7306493;19;130516;-41
2022/03/23 11:23:47;;;;;;;33.58;4.97;;;;;;;19.00;54.58;100774.88;7304181;19;156277;-45